Aérodrome :
LOGIN :

S'inscrire | Disclaimer

   EN    FR    IT 

 










Légende :    VFR   VFR Marginal   IFR   IFR Intensif   IFR Très Intensif
Visi : 
Plafond : 
>= 8 km
>= 3000ft
5 à 8 km
1000 à 3000 ft
1500m à 5 km
500 à 1000 ft
800 à 1500m
200 à 500 ft
< 800m
< 200 ft
Symboles :   Orages  Brouillard  Fortes neiges  Fortes précipitations  Vent > 20 kt
SIGMETs :   Divers  Orages  Givrage  Turbulence  Onde Orograph.  Cendres Volcan.






- Altitude de l'aérodrome : 1234 ft
- Code IATA : LUX


ELLX - Luxembourg Findel

DERNIER METAR :
  • 182250Z 22011KT 9999 -RA SCT014 BKN050 05/03 Q1020 TEMPO BKN014TCU

METARs EXPIRÉS :
  • 182220Z 22012KT 9999 SCT014 05/03 Q1021 TEMPO BKN014TCU
  • 182150Z 22010KT 9999 SCT012 BKN060 05/03 Q1022 NOSIG
  • 182120Z 22012KT 9999 FEW016 BKN060 05/03 Q1022 NOSIG
  • 182050Z 22012KT 9999 FEW016 BKN060 05/03 Q1022 NOSIG
  • 182020Z 21012KT 9999 SCT018 BKN060 05/03 Q1022 NOSIG

TAF TAF ELLX
Valide du 18 à 18h jusqu'au 20 à 00h UTC


181700Z 1818/1924 23011KT 9999 SCT020 BKN040
TEMPO 1818/1820 25015G25KT 7000 -SHRA SCT020TCU BKN020
BECMG 1820/1822 SCT009 BKN015
TEMPO 1822/1906 5000 RA BKN006
BECMG 1904/1906 29008KT
BECMG 1909/1911 BKN025
ATIS : +352 4798 27300
Météo : +352 4798 27010 / 27050



MET'MAP, la Météo Aéronautique d'un coup d'oeil ! - Copyright ORBIFLY Décembre 2007 - Disclaimer

ORBIFLY MET'MAP TEAM :

Programmation & Développement : Alexandra Zaïnal
Sur une idée originale de : Baudouin d'Aumeries
Assistance à la programmation : Marc-Olivier Méhu
Soutien technique & logistique : Manuel Goepfert

Contact : metmap@orbifly.com




SOURCES & CREDITS :

   NOAA